Terminal Aerodrome Forecast
Issued by NWS Charleston, WV

Current Version | Previous Version | Graphics & Text | Print | Product List | Glossary On
Versions: 1 2 3 4 5 6 7 8 9 10 11 12 13 14 15 16 17 18 19 20 21 22 23 24 25 26
447
FTUS41 KRLX 232105 AAA
TAFPKB
TAF AMD
KPKB 232105Z 2321/2418 04009KT 6SM -RA BKN015 OVC060
     FM232300 04008KT 3SM -RA OVC014
     FM240100 01008KT 5SM -RA OVC015
     FM241100 31005KT P6SM OVC013=

USA.gov is the U.S. government's official web portal to all federal, state and local government web resources and services.